Flight Track Log - Related Links

Times and Time Zones

All times are in EDT time to prevent confusion due to time zone crossing. See the KAP444 flight status page for this flight to view local times or setup timezone preferences in your user account.

Time Position Orientation Groundspeed Altitude Reporting Facility
EDT Latitude Longitude Course Direction KTS MPH feet Rate Location/Type
Sat 09:32:39 AM 42.3500 -70.9833 90° East 105 121 500  Level KA90
Sat 09:33:10 AM 42.3500 -70.9667 90° East 123 142 1,100 800 Climbing KA90
Sat 09:34:09 AM 42.3333 -70.9333 124° Southeast 129 148 1,700 655 Climbing KA90
Sat 09:35:09 AM 42.3000 -70.8833 132° Southeast 131 151 2,400 700 Climbing KA90
Sat 09:36:09 AM 42.2833 -70.8500 124° Southeast 127 146 3,100 694 Climbing KA90
Sat 09:37:10 AM 42.2667 -70.8167 124° Southeast 123 142 3,800 645 Climbing KA90
Sat 09:38:10 AM 42.2333 -70.7833 143° Southeast 130 150 4,400 600 Climbing KA90
Sat 09:39:10 AM 42.2000 -70.7667 160° South 135 155 5,000 500 Climbing KA90
Sat 09:40:10 AM 42.1667 -70.7333 143° Southeast 139 160 5,400 400 Climbing KA90
Sat 09:42:00 AM 42.1578 -70.6387 97° East  Level FlightAware Approximate
Sat 09:49:00 AM 41.9145 -70.4814 114° Southeast  Level Estimated
Sat 09:50:00 AM 41.9259 -70.4319 73° East  Level FlightAware Approximate
Sat 09:51:00 AM 41.9373 -70.3824 73° East  Level FlightAware Approximate
Sat 09:52:00 AM 41.9486 -70.3328 73° East  Level FlightAware Approximate
Sat 09:53:00 AM 41.9599 -70.2833 73° East  Level FlightAware Approximate
Sat 09:54:00 AM 41.9224 -70.2713 180° South  Level Estimated
Sat 09:55:00 AM 41.8887 -70.2463 151° Southeast  Level FlightAware Approximate
Sat 09:56:00 AM 41.8549 -70.2213 151° Southeast  Level FlightAware Approximate
Sat 09:57:00 AM 41.8212 -70.1963 151° Southeast  Level FlightAware Approximate
Sat 09:58:00 AM 41.7874 -70.1713 151° Southeast  Level FlightAware Approximate
Sat 09:59:00 AM 41.7536 -70.1464 151° Southeast  Level FlightAware Approximate
Sat 10:00:00 AM 41.7198 -70.1215 151° Southeast  Level FlightAware Approximate
Sat 10:01:00 AM 41.6861 -70.0966 151° Southeast  Level FlightAware Approximate
Sat 10:02:00 AM 41.6523 -70.0717 151° Southeast  Level FlightAware Approximate
Sat 10:03:00 AM 41.6185 -70.0469 151° Southeast  Level FlightAware Approximate
Sat 10:04:00 AM 41.5847 -70.0221 151° Southeast  Level FlightAware Approximate
Sat 10:05:00 AM 41.5925 -70.0348 189° South  Level FlightAware Approximate
Sat 10:06:00 AM 41.5544 -70.0425 189° South  Level FlightAware Approximate
Sat 10:07:00 AM 41.5163 -70.0500 180° South  Level FlightAware Approximate
Sat 10:08:00 AM 41.4777 -70.0500 180° South  Level FlightAware Approximate
Sat 10:09:00 AM 41.4392 -70.0500 180° South  Level FlightAware Approximate
Sat 10:10:00 AM 41.4006 -70.0500 180° South  Level FlightAware Approximate
Sat 10:11:00 AM 41.3621 -70.0500 180° South  Level FlightAware Approximate
Sat 10:12:00 AM 41.3235 -70.0500 180° South  Level FlightAware Approximate
Sat 10:13:00 AM 41.2850 -70.0500 180° South  Level FlightAware Approximate
Sat 10:14:00 AM 41.2500 -70.0500 180° South  Level FlightAware Approximate
Sat 10:15:00 AM 41.2531 -70.0603 180° South  Level Estimated
Sat 10:16:00 AM 41.2531 -70.0603 180° South  Level Estimated
Sat 10:17:00 AM 41.2531 -70.0603 180° South  Level Estimated
Sat 10:18:00 AM 41.2531 -70.0603 180° South  Level Estimated
Sat 10:19:00 AM 41.2531 -70.0603 180° South  Level Estimated
Sat 10:20:00 AM 41.2531 -70.0603 180° South  Level Estimated
Sat 10:21:00 AM 41.2531 -70.0603 180° South  Level Estimated
Sat 10:22:00 AM 41.2531 -70.0603 180° South  Level Estimated
Sat 10:23:00 AM 41.2531 -70.0603 180° South  Level Estimated
Sat 10:24:00 AM 41.2531 -70.0603 180° South  Level Estimated
Sat 10:25:00 AM 41.2531 -70.0603 180° South  Level Estimated
Sat 10:26:00 AM 41.2531 -70.0603 180° South  Level Estimated
Sat 10:27:00 AM 41.2531 -70.0603 180° South  Level Estimated
Sat 10:28:00 AM 41.2531 -70.0603 180° South  Level Estimated
Sat 10:29:00 AM 41.2531 -70.0603 180° South  Level Estimated

Login

Don't have an account? Register now (free) for customized features, flight alerts, and more!